^^
Saratoga-Weather Station Historical Data
Daily Summary for March 30, 2021 Units:  English    Metric   Both
Daily Weekly Monthly Yearly Custom
  High: Low: Average:
Temperature: 70.9 °F 57.7 °F 63.1 °F
Dew Point: 59.5 °F 55.8 °F 57.4 °F
Humidity: 95% 65% 82%
Wind Speed: 10.1mph 0mph 2.6mph
Wind Gust: 12mph - -
Wind- - West
Pressure: 30.1 in 30 in -
Precipitation: 0.02 in    
Historical Graphs
 
 
Tabular Data for March 30, 2021
Time Temperature Dew Point Pressure Wind Wind Speed Wind Gust Humidity Rainfall Rate (Hourly) solar
00:02 58.5 °F 56.1 °F 30 in West 2.9 mph 6 mph 92% 0 in 0 W/m2
00:07 58.5 °F 56.1 °F 30 in West 4 mph 7 mph 92% 0 in 0 W/m2
00:12 58.5 °F 56.1 °F 30 in West 2.9 mph 7 mph 92% 0 in 0 W/m2
00:17 58.3 °F 55.9 °F 30 in WNW 2 mph 3 mph 92% 0 in 0 W/m2
00:22 58.3 °F 55.9 °F 30 in WNW 2.9 mph 7 mph 92% 0 in 0 W/m2
00:27 58.3 °F 55.9 °F 30 in West 2 mph 3 mph 92% 0 in 0 W/m2
00:32 58.3 °F 55.9 °F 30 in West 4 mph 6 mph 92% 0 in 0 W/m2
00:37 58.5 °F 56.1 °F 30 in West 2.9 mph 4 mph 92% 0 in 0 W/m2
00:43 58.3 °F 55.9 °F 30 in West 2 mph 4 mph 92% 0 in 0 W/m2
00:48 58.3 °F 55.9 °F 30 in West 0.9 mph 4 mph 92% 0 in 0 W/m2
00:53 58.5 °F 56.1 °F 30 in WSW 2 mph 2 mph 92% 0 in 0 W/m2
00:58 58.5 °F 56.1 °F 30 in WSW 0.9 mph 4 mph 92% 0 in 0 W/m2
01:03 58.5 °F 56.1 °F 30 in WSW 2 mph 4 mph 92% 0 in 0 W/m2
01:08 58.5 °F 56.1 °F 30 in SW 2 mph 4 mph 92% 0 in 0 W/m2
01:13 58.5 °F 56.1 °F 30 in WSW 2 mph 4 mph 92% 0 in 0 W/m2
01:18 58.5 °F 55.8 °F 30 in West 0.9 mph 4 mph 91% 0 in 0 W/m2
01:23 58.6 °F 55.9 °F 30 in West 2.9 mph 4 mph 91% 0 in 0 W/m2
01:28 58.6 °F 55.9 °F 30 in West 2 mph 4 mph 91% 0 in 0 W/m2
01:33 58.6 °F 55.9 °F 30 in West 2 mph 4 mph 91% 0 in 0 W/m2
01:38 58.6 °F 55.9 °F 30 in WNW 2.9 mph 3 mph 91% 0 in 0 W/m2
01:43 58.6 °F 55.9 °F 30 in West 2 mph 5 mph 91% 0 in 0 W/m2
01:48 58.6 °F 55.9 °F 30 in West 2.9 mph 4 mph 91% 0 in 0 W/m2
01:53 58.6 °F 55.9 °F 30 in WSW 2.9 mph 6 mph 91% 0 in 0 W/m2
01:58 58.6 °F 55.9 °F 30 in West 2 mph 4 mph 91% 0 in 0 W/m2
02:03 58.6 °F 55.9 °F 30 in West 2.9 mph 3 mph 91% 0 in 0 W/m2
02:08 58.5 °F 55.8 °F 30 in WSW 2 mph 6 mph 91% 0 in 0 W/m2
02:13 58.5 °F 55.8 °F 30 in WSW 0.9 mph 3 mph 91% 0 in 0 W/m2
02:18 58.5 °F 55.8 °F 30 in Calm   6 mph 91% 0 in 0 W/m2
02:23 58.5 °F 55.8 °F 30 in West 2 mph 3 mph 91% 0 in 0 W/m2
02:28 58.5 °F 55.8 °F 30 in West 0.9 mph 5 mph 91% 0 in 0 W/m2
02:33 58.5 °F 55.8 °F 30 in West 0.9 mph 4 mph 91% 0 in 0 W/m2
02:38 58.5 °F 55.8 °F 30 in West 2 mph 4 mph 91% 0 in 0 W/m2
02:43 58.5 °F 55.8 °F 30 in West 2 mph 3 mph 91% 0 in 0 W/m2
02:48 58.5 °F 56.1 °F 30 in West 2.9 mph 3 mph 92% 0 in 0 W/m2
02:53 58.5 °F 56.1 °F 30 in West 2 mph 2 mph 92% 0 in 0 W/m2
02:58 58.5 °F 56.1 °F 30 in West 2 mph 4 mph 92% 0 in 0 W/m2
03:03 58.5 °F 56.1 °F 30 in West 2 mph 3 mph 92% 0 in 0 W/m2
03:08 58.5 °F 56.1 °F 30 in West 2.9 mph 4 mph 92% 0 in 0 W/m2
03:13 58.5 °F 56.1 °F 30 in West 2.9 mph 6 mph 92% 0 in 0 W/m2
03:18 58.6 °F 56.3 °F 30 in WNW 2 mph 6 mph 92% 0 in 0 W/m2
03:23 58.6 °F 56.3 °F 30 in WNW 2 mph 4 mph 92% 0 in 0 W/m2
03:28 58.5 °F 56.1 °F 30 in WSW 4 mph 4 mph 92% 0 in 0 W/m2
03:33 58.3 °F 56.3 °F 30 in West 2.9 mph 4 mph 93% 0 in 0 W/m2
03:38 58.1 °F 56.1 °F 30 in West 2.9 mph 4 mph 93% 0.01 in 0 W/m2
03:43 57.9 °F 55.9 °F 30 in WNW 2.9 mph 4 mph 93% 0.01 in 0 W/m2
03:48 57.9 °F 56.1 °F 30 in West 2 mph 4 mph 94% 0.01 in 0 W/m2
03:53 57.7 °F 55.9 °F 30 in West 4 mph 6 mph 94% 0.01 in 0 W/m2
03:58 57.7 °F 55.9 °F 30 in WNW 2 mph 6 mph 94% 0.01 in 0 W/m2
04:03 57.7 °F 55.9 °F 30 in WNW 2 mph 3 mph 94% 0.01 in 0 W/m2
04:08 57.7 °F 55.9 °F 30 in West 2 mph 6 mph 94% 0.01 in 0 W/m2
04:13 57.7 °F 55.9 °F 30 in West 2 mph 4 mph 94% 0.01 in 0 W/m2
04:18 57.7 °F 55.9 °F 30 in West 2.9 mph 4 mph 94% 0.01 in 0 W/m2
04:23 57.7 °F 55.9 °F 30 in WSW 4 mph 4 mph 94% 0.01 in 0 W/m2
04:28 57.9 °F 56.1 °F 30 in WSW 2 mph 4 mph 94% 0.02 in 0 W/m2
04:33 57.9 °F 56.1 °F 30 in West 0.9 mph 4 mph 94% 0.02 in 0 W/m2
04:38 58.1 °F 56.3 °F 30 in WSW 2.9 mph 3 mph 94% 0.01 in 0 W/m2
04:43 58.1 °F 56.3 °F 30 in SW 0.9 mph 4 mph 94% 0.01 in 0 W/m2
04:48 58.3 °F 56.8 °F 30 in WSW 2 mph 4 mph 95% 0.01 in 0 W/m2
04:53 58.3 °F 56.8 °F 30 in WSW 0.9 mph 2 mph 95% 0.01 in 0 W/m2
04:58 58.3 °F 56.8 °F 30 in WSW 2 mph 4 mph 95% 0.02 in 0 W/m2
05:03 58.3 °F 56.8 °F 30 in WSW 2 mph 4 mph 95% 0.02 in 0 W/m2
05:08 58.3 °F 56.8 °F 30 in Calm     95% 0.02 in 0 W/m2
05:13 58.3 °F 56.8 °F 30 in Calm   4 mph 95% 0.02 in 0 W/m2
05:18 58.3 °F 56.8 °F 30 in Calm     95% 0.02 in 0 W/m2
05:23 58.3 °F 56.8 °F 30 in NW 0.9 mph 1 mph 95% 0.02 in 0 W/m2
05:28 58.5 °F 57 °F 30 in NW 0.9 mph 2 mph 95% 0.01 in 0 W/m2
05:33 58.5 °F 57 °F 30 in NW 0.9 mph 1 mph 95% 0.01 in 0 W/m2
05:38 58.5 °F 57 °F 30 in Calm     95% 0.01 in 0 W/m2
05:43 58.5 °F 57 °F 30 in Calm     95% 0.01 in 0 W/m2
05:48 58.5 °F 57 °F 30 in NW 0.9 mph 2 mph 95% 0.01 in 0 W/m2
05:53 58.5 °F 57 °F 30 in Calm   1 mph 95% 0.01 in 0 W/m2
05:58 58.5 °F 57 °F 30 in NNW 2 mph 4 mph 95% 0 in 0 W/m2
06:03 58.5 °F 57 °F 30 in NNW 0.9 mph 2 mph 95% 0 in 0 W/m2
06:08 58.5 °F 57 °F 30 in Calm   4 mph 95% 0 in 0 W/m2
06:13 58.5 °F 57 °F 30 in West 2 mph 2 mph 95% 0 in 0 W/m2
06:18 58.5 °F 57 °F 30 in WNW 2 mph 3 mph 95% 0 in 0 W/m2
06:23 58.6 °F 57.2 °F 30 in West 2 mph 2 mph 95% 0 in 0 W/m2
06:28 58.6 °F 56.8 °F 30 in WNW 2 mph 3 mph 94% 0 in 0 W/m2
06:33 58.8 °F 57 °F 30 in WNW 2.9 mph 6 mph 94% 0 in 0 W/m2
06:38 59 °F 57 °F 30 in WNW 0.9 mph 2 mph 93% 0 in 0 W/m2
06:43 59 °F 57 °F 30 in SW 2.9 mph 4 mph 93% 0 in 0 W/m2
06:48 59.2 °F 57.2 °F 30 in WSW 2 mph 2 mph 93% 0 in 0 W/m2
06:53 59.2 °F 57.2 °F 30 in NW 2 mph 4 mph 93% 0 in 0 W/m2
06:58 59.2 °F 57.2 °F 30 in West 2 mph 2 mph 93% 0 in 0 W/m2
07:04 59.2 °F 56.8 °F 30 in West 2 mph 4 mph 92% 0 in 0 W/m2
07:09 59.4 °F 57 °F 30 in West 0.9 mph 2 mph 92% 0 in 5 W/m2
07:14 59.4 °F 57 °F 30 in WNW 4 mph 4 mph 92% 0 in 5 W/m2
07:19 59.5 °F 57.2 °F 30 in West 4 mph 5 mph 92% 0 in 5 W/m2
07:24 59.7 °F 57 °F 30 in WNW 0.9 mph 4 mph 91% 0 in 5 W/m2
07:29 59.7 °F 57 °F 30 in Calm   3 mph 91% 0 in 5 W/m2
07:34 59.9 °F 57.2 °F 30 in WNW 2 mph 4 mph 91% 0 in 5 W/m2
07:39 59.9 °F 57.2 °F 30 in WNW 2 mph 3 mph 91% 0 in 7 W/m2
07:44 60.1 °F 57.4 °F 30 in Calm   3 mph 91% 0 in 7 W/m2
07:49 59.9 °F 57.2 °F 30 in WNW 2 mph 3 mph 91% 0 in 5 W/m2
07:54 59.9 °F 57.2 °F 30 in NW 2 mph 3 mph 91% 0 in 9 W/m2
07:59 60.1 °F 57.4 °F 30 in NW 0.9 mph 2 mph 91% 0 in 12 W/m2
08:04 59.9 °F 57.2 °F 30 in NW 2 mph 3 mph 91% 0 in 18 W/m2
08:09 59.9 °F 57.2 °F 30 in West 2 mph 3 mph 91% 0 in 25 W/m2
08:14 60.1 °F 57.4 °F 30 in WNW 2 mph 2 mph 91% 0 in 25 W/m2
08:19 60.3 °F 57.6 °F 30 in WNW 2.9 mph 4 mph 91% 0 in 25 W/m2
08:24 60.3 °F 57.4 °F 30 in West 4 mph 6 mph 90% 0 in 26 W/m2
08:29 60.4 °F 57.6 °F 30 in WNW 2 mph 9 mph 90% 0 in 28 W/m2
08:34 60.6 °F 57.7 °F 30 in WNW 0.9 mph 5 mph 90% 0 in 35 W/m2
08:39 60.6 °F 57.4 °F 30 in West 2.9 mph 9 mph 89% 0 in 40 W/m2
08:44 60.6 °F 57.4 °F 30 in WNW 4 mph 6 mph 89% 0 in 35 W/m2
08:49 60.8 °F 57.6 °F 30 in WNW 6 mph 8 mph 89% 0 in 33 W/m2
08:54 61 °F 57.7 °F 30 in West 2 mph 3 mph 89% 0 in 39 W/m2
08:59 61 °F 57.7 °F 30 in NW 2 mph 8 mph 89% 0 in 42 W/m2
09:04 61 °F 57.7 °F 30 in NNW 2.9 mph 6 mph 89% 0 in 88 W/m2
09:09 61.2 °F 57.9 °F 30 in West 4 mph 8 mph 89% 0 in 90 W/m2
09:14 61.2 °F 57.9 °F 30 in WNW 2.9 mph 3 mph 89% 0 in 77 W/m2
09:19 61.2 °F 57.6 °F 30 in WSW 4 mph 8 mph 88% 0 in 70 W/m2
09:24 61.3 °F 57.7 °F 30 in North 2.9 mph 6 mph 88% 0 in 76 W/m2
09:29 61.5 °F 57.6 °F 30 in NW 8.1 mph 8 mph 87% 0 in 93 W/m2
09:34 61.5 °F 57.6 °F 30 in NW 2.9 mph 8 mph 87% 0 in 102 W/m2
09:39 61.9 °F 57.6 °F 30 in North 2.9 mph 4 mph 86% 0 in 121 W/m2
09:44 61.9 °F 57.6 °F 30 in NW 0.9 mph 8 mph 86% 0 in 123 W/m2
09:49 62.1 °F 57.7 °F 30 in WNW 2.9 mph 4 mph 86% 0 in 123 W/m2
09:54 62.1 °F 57.7 °F 30 in West 2.9 mph 9 mph 86% 0 in 104 W/m2
09:59 62.2 °F 57.9 °F 30 in NW 0.9 mph 3 mph 86% 0 in 120 W/m2
10:04 62.2 °F 57.7 °F 30 in North 4 mph 9 mph 85% 0 in 144 W/m2
10:09 62.4 °F 57.9 °F 30.1 in NNW 0.9 mph 3 mph 85% 0 in 137 W/m2
10:14 62.4 °F 58.1 °F 30.1 in WNW 5 mph 5 mph 86% 0 in 141 W/m2
10:19 62.6 °F 58.1 °F 30.1 in NNW 4 mph 5 mph 85% 0 in 137 W/m2
10:24 62.6 °F 58.1 °F 30.1 in NNW 2.9 mph 6 mph 85% 0 in 137 W/m2
10:29 62.8 °F 58.3 °F 30.1 in WNW 4.9 mph 6 mph 85% 0 in 132 W/m2
10:34 62.8 °F 58.3 °F 30.1 in WNW 0.9 mph 7 mph 85% 0 in 139 W/m2
10:39 63 °F 58.1 °F 30.1 in NW 2 mph 8 mph 84% 0 in 146 W/m2
10:44 63 °F 58.5 °F 30.1 in West 4 mph 5 mph 85% 0 in 165 W/m2
10:49 63.1 °F 58.3 °F 30.1 in WNW 4 mph 8 mph 84% 0 in 223 W/m2
10:54 63.3 °F 58.1 °F 30.1 in WSW 2 mph 7 mph 83% 0 in 285 W/m2
10:59 63.9 °F 58.6 °F 30.1 in NW 4.9 mph 8 mph 83% 0 in 703 W/m2
11:04 64.6 °F 58.6 °F 30.1 in NNW 4 mph 9 mph 81% 0 in 601 W/m2
11:09 65.1 °F 58.5 °F 30.1 in NW 4.9 mph 8 mph 79% 0 in 304 W/m2
11:14 65.1 °F 58.5 °F 30.1 in WNW 0.9 mph 4 mph 79% 0 in 267 W/m2
11:19 65.3 °F 58.6 °F 30.1 in WNW 2.9 mph 7 mph 79% 0 in 302 W/m2
11:24 65.5 °F 58.8 °F 30.1 in WSW 6.9 mph 9 mph 79% 0 in 304 W/m2
11:29 65.7 °F 58.6 °F 30.1 in NW 4 mph 9 mph 78% 0 in 279 W/m2
11:34 65.5 °F 58.5 °F 30.1 in SW 4.9 mph 9 mph 78% 0 in 246 W/m2
11:39 65.3 °F 57.9 °F 30.1 in WNW 4 mph 8 mph 77% 0 in 262 W/m2
11:44 65.3 °F 58.3 °F 30.1 in NNE 2 mph 4 mph 78% 0 in 158 W/m2
11:49 65.1 °F 57.7 °F 30.1 in NNW 4 mph 10 mph 77% 0 in 197 W/m2
11:54 65.5 °F 58.8 °F 30.1 in East 0.9 mph 7 mph 79% 0 in 251 W/m2
11:59 66 °F 58.6 °F 30.1 in ENE 0.9 mph 10 mph 77% 0 in 251 W/m2
12:04 66.9 °F 59.5 °F 30.1 in SSE 2.9 mph 4 mph 77% 0 in 712 W/m2
12:09 67.6 °F 58.6 °F 30.1 in ESE 2 mph 8 mph 73% 0 in 251 W/m2
12:14 67.5 °F 58.1 °F 30.1 in West 4 mph 6 mph 72% 0 in 262 W/m2
12:19 67.6 °F 58.6 °F 30.1 in NNE 2 mph 3 mph 73% 0 in 262 W/m2
12:24 68 °F 58.6 °F 30.1 in WNW 6.9 mph 8 mph 72% 0 in 339 W/m2
12:29 67.8 °F 58.8 °F 30.1 in NNE 4 mph 6 mph 73% 0 in 288 W/m2
12:34 67.6 °F 58.6 °F 30.1 in West 6 mph 10 mph 73% 0 in 278 W/m2
12:39 67.5 °F 58.1 °F 30.1 in ENE 2.9 mph 10 mph 72% 0 in 362 W/m2
12:44 67.5 °F 58.1 °F 30.1 in NNW 2.9 mph 8 mph 72% 0 in 297 W/m2
12:49 67.6 °F 58.3 °F 30.1 in West 4 mph 10 mph 72% 0 in 800 W/m2
12:54 68.4 °F 58.6 °F 30.1 in East 2.9 mph 6 mph 71% 0 in 320 W/m2
12:59 68.5 °F 57.6 °F 30.1 in SSW 0.9 mph 4 mph 68% 0 in 200 W/m2
13:04 68.5 °F 58.3 °F 30.1 in NW 2.9 mph 6 mph 70% 0 in 176 W/m2
13:09 68.2 °F 57.6 °F 30.1 in West 0.9 mph 6 mph 69% 0 in 232 W/m2
13:14 68.2 °F 58.5 °F 30.1 in WSW 2 mph 6 mph 71% 0 in 345 W/m2
13:19 68.2 °F 58.5 °F 30.1 in Calm   4 mph 71% 0 in 327 W/m2
13:24 68.4 °F 58.6 °F 30.1 in Calm   3 mph 71% 0 in 346 W/m2
13:29 68.7 °F 58.1 °F 30.1 in ENE 0.9 mph 5 mph 69% 0 in 373 W/m2
13:34 69.1 °F 58.5 °F 30.1 in WNW 4.9 mph 10 mph 69% 0 in 308 W/m2
13:39 68.7 °F 57.7 °F 30.1 in NNW 2.9 mph 10 mph 68% 0 in 267 W/m2
13:44 68.4 °F 57.7 °F 30.1 in NW 0.9 mph 3 mph 69% 0 in 207 W/m2
13:49 68.4 °F 58.3 °F 30.1 in SW 6.9 mph 9 mph 70% 0 in 202 W/m2
13:54 68 °F 57.9 °F 30.1 in WNW 2 mph 6 mph 70% 0 in 121 W/m2
13:59 67.8 °F 57.7 °F 30.1 in WNW 2.9 mph 9 mph 70% 0 in 144 W/m2
14:04 67.6 °F 57.9 °F 30.1 in NW 2 mph 7 mph 71% 0 in 167 W/m2
14:09 67.6 °F 57.9 °F 30.1 in NW 4 mph 6 mph 71% 0 in 162 W/m2
14:14 67.6 °F 57.9 °F 30.1 in NW 4 mph 6 mph 71% 0 in 162 W/m2
14:19 67.6 °F 57.9 °F 30.1 in NNW 6 mph 11 mph 71% 0 in 185 W/m2
14:24 67.6 °F 57.9 °F 30.1 in West 2.9 mph 11 mph 71% 0 in 246 W/m2
14:29 67.6 °F 57.9 °F 30.1 in WNW 4 mph 7 mph 71% 0 in 306 W/m2
14:34 68 °F 57.9 °F 30.1 in NNW 2 mph 11 mph 70% 0 in 315 W/m2
14:39 68.5 °F 57.9 °F 30.1 in NE 4.9 mph 5 mph 69% 0 in 315 W/m2
14:44 69.1 °F 58.1 °F 30.1 in WNW 2.9 mph 11 mph 68% 0 in 369 W/m2
14:49 69.4 °F 57.9 °F 30.1 in West 2.9 mph 7 mph 67% 0 in 334 W/m2
14:54 69.6 °F 58.6 °F 30.1 in NW 4 mph 11 mph 68% 0 in 835 W/m2
14:59 70 °F 58.5 °F 30.1 in ENE 0.9 mph 4 mph 67% 0 in 297 W/m2
15:04 70.2 °F 58.3 °F 30.1 in WNW 2.9 mph 8 mph 66% 0 in 341 W/m2
15:09 70.2 °F 57.9 °F 30.1 in WNW 6.9 mph 8 mph 65% 0 in 348 W/m2
15:14 70.3 °F 58.5 °F 30.1 in NW 6 mph 7 mph 66% 0 in 895 W/m2
15:19 70.7 °F 58.3 °F 30.1 in NW 2.9 mph 5 mph 65% 0 in 76 W/m2
15:24 70.2 °F 58.3 °F 30.1 in NW 6.9 mph 8 mph 66% 0 in 84 W/m2
15:29 68.9 °F 57.6 °F 30.1 in NW 2.9 mph 5 mph 67% 0 in 113 W/m2
15:34 68.5 °F 57.6 °F 30.1 in SSE 2 mph 4 mph 68% 0 in 163 W/m2
15:39 69.1 °F 58.5 °F 30.1 in SSW 2 mph 5 mph 69% 0 in 744 W/m2
15:44 70 °F 59 °F 30.1 in WNW 2.9 mph 9 mph 68% 0 in 770 W/m2
15:49 70.3 °F 58.1 °F 30.1 in WNW 2.9 mph 6 mph 65% 0 in 146 W/m2
15:54 70.2 °F 58.3 °F 30.1 in West 2.9 mph 10 mph 66% 0 in 635 W/m2
15:59 70.2 °F 57.9 °F 30.1 in North 2 mph 8 mph 65% 0 in 229 W/m2
16:04 70.3 °F 58.1 °F 30.1 in SE 0.9 mph 5 mph 65% 0 in 185 W/m2
16:09 70.5 °F 58.1 °F 30.1 in ENE 4.9 mph 9 mph 65% 0 in 647 W/m2
16:14 70.9 °F 58.5 °F 30.1 in West 8.9 mph 11 mph 65% 0 in 689 W/m2
16:20 70.5 °F 58.1 °F 30.1 in ENE 2.9 mph 8 mph 65% 0 in 220 W/m2
16:25 70.3 °F 58.8 °F 30.1 in ENE 2 mph 10 mph 67% 0 in 490 W/m2
16:30 70.3 °F 58.5 °F 30.1 in West 6 mph 8 mph 66% 0 in 236 W/m2
16:35 70 °F 58.1 °F 30.1 in NW 4 mph 9 mph 66% 0 in 237 W/m2
16:40 70 °F 58.5 °F 30.1 in North 6.9 mph 9 mph 67% 0 in 216 W/m2
16:45 70.2 °F 58.6 °F 30.1 in NE 2 mph 6 mph 67% 0 in 265 W/m2
16:50 70.2 °F 58.3 °F 30.1 in WNW 2.9 mph 12 mph 66% 0 in 220 W/m2
16:55 69.6 °F 58.6 °F 30.1 in WSW 4.9 mph 6 mph 68% 0 in 253 W/m2
17:00 69.4 °F 58.5 °F 30.1 in SW 4.9 mph 11 mph 68% 0 in 503 W/m2
17:05 69.6 °F 58.6 °F 30.1 in NW 8.1 mph 10 mph 68% 0 in 506 W/m2
17:10 70 °F 58.5 °F 30.1 in NW 2.9 mph 9 mph 67% 0 in 499 W/m2
17:15 70.2 °F 58.3 °F 30.1 in West 2.9 mph 7 mph 66% 0 in 512 W/m2
17:20 70.2 °F 58.6 °F 30.1 in West 6 mph 10 mph 67% 0 in 554 W/m2
17:25 70.5 °F 59 °F 30.1 in WNW 10.1 mph 11 mph 67% 0 in 552 W/m2
17:30 70.5 °F 58.1 °F 30.1 in West 2 mph 8 mph 65% 0 in 197 W/m2
17:35 70.3 °F 58.1 °F 30.1 in WNW 2 mph 4 mph 65% 0 in 564 W/m2
17:40 70.3 °F 58.1 °F 30.1 in NNW 6 mph 9 mph 65% 0 in 232 W/m2
17:45 69.8 °F 58.3 °F 30.1 in WNW 2.9 mph 8 mph 67% 0 in 248 W/m2
17:50 69.6 °F 58.1 °F 30.1 in SSW 2 mph 7 mph 67% 0 in 359 W/m2
17:55 69.6 °F 58.1 °F 30.1 in North 2.9 mph 11 mph 67% 0 in 329 W/m2
18:00 69.4 °F 58.5 °F 30.1 in NW 2.9 mph 6 mph 68% 0 in 239 W/m2
18:05 69.3 °F 58.3 °F 30.1 in WNW 2 mph 9 mph 68% 0 in 311 W/m2
18:10 69.1 °F 58.8 °F 30.1 in NNE 2 mph 8 mph 70% 0 in 323 W/m2
18:15 69.1 °F 58.5 °F 30.1 in WNW 0.9 mph 7 mph 69% 0 in 178 W/m2
18:20 68.7 °F 57.7 °F 30.1 in WNW 4 mph 7 mph 68% 0 in 132 W/m2
18:25 68.4 °F 58.3 °F 30.1 in ENE 2 mph 6 mph 70% 0 in 105 W/m2
18:30 68.2 °F 58.5 °F 30.1 in WNW 0.9 mph 8 mph 71% 0 in 130 W/m2
18:35 68 °F 58.3 °F 30.1 in NW 6 mph 9 mph 71% 0 in 176 W/m2
18:40 67.8 °F 58.1 °F 30.1 in West 2 mph 4 mph 71% 0 in 97 W/m2
18:45 67.6 °F 58.3 °F 30.1 in NNW 0.9 mph 5 mph 72% 0 in 97 W/m2
18:50 67.6 °F 58.3 °F 30.1 in North 8.1 mph 9 mph 72% 0 in 81 W/m2
18:55 67.6 °F 58.3 °F 30.1 in SW 2.9 mph 10 mph 72% 0 in 165 W/m2
19:00 67.6 °F 58.3 °F 30.1 in WSW 0.9 mph 6 mph 72% 0 in 200 W/m2
19:05 67.8 °F 58.5 °F 30.1 in NW 2.9 mph 8 mph 72% 0 in 185 W/m2
19:10 67.8 °F 58.5 °F 30.1 in North 2.9 mph 4 mph 72% 0 in 88 W/m2
19:15 67.8 °F 58.1 °F 30.1 in NW 8.1 mph 10 mph 71% 0 in 130 W/m2
19:20 67.5 °F 57.7 °F 30.1 in WSW 8.1 mph 10 mph 71% 0 in 51 W/m2
19:25 66.9 °F 57.6 °F 30.1 in NW 4 mph 9 mph 72% 0 in 42 W/m2
19:30 66.7 °F 57.7 °F 30.1 in NW 10 mph 10 mph 73% 0 in 39 W/m2
19:35 66.6 °F 58.1 °F 30.1 in West 6.9 mph 9 mph 74% 0 in 39 W/m2
19:40 66.4 °F 57.9 °F 30.1 in NW 2 mph 4 mph 74% 0 in 46 W/m2
19:45 66 °F 57.6 °F 30.1 in WNW 0.9 mph 6 mph 74% 0 in 35 W/m2
19:50 65.8 °F 57.7 °F 30.1 in WNW 2 mph 3 mph 75% 0 in 26 W/m2
19:55 65.7 °F 57.6 °F 30.1 in NW 2.9 mph 5 mph 75% 0 in 25 W/m2
20:00 65.5 °F 57.7 °F 30.1 in NNW 2 mph 5 mph 76% 0 in 19 W/m2
20:05 65.5 °F 57.7 °F 30.1 in NNW 0.9 mph 4 mph 76% 0 in 16 W/m2
20:10 65.1 °F 57.4 °F 30.1 in West 0.9 mph 5 mph 76% 0 in 12 W/m2
20:15 64.9 °F 57.6 °F 30.1 in WNW 2.9 mph 9 mph 77% 0 in 9 W/m2
20:20 64.8 °F 57.4 °F 30.1 in WNW 0.9 mph 2 mph 77% 0 in 7 W/m2
20:25 64.6 °F 57.2 °F 30.1 in WNW 2 mph 6 mph 77% 0 in 5 W/m2
20:30 64.2 °F 57.2 °F 30.1 in West 2 mph 4 mph 78% 0 in 0 W/m2
20:35 64 °F 57 °F 30.1 in West 2.9 mph 4 mph 78% 0 in 0 W/m2
20:40 63.7 °F 57 °F 30.1 in West 2.9 mph 4 mph 79% 0 in 0 W/m2
20:45 63.3 °F 56.7 °F 30.1 in West 2 mph 4 mph 79% 0 in 0 W/m2
20:50 63.1 °F 56.8 °F 30.1 in West 2 mph 3 mph 80% 0 in 0 W/m2
20:55 63 °F 56.7 °F 30.1 in WNW 2.9 mph 6 mph 80% 0 in 0 W/m2
21:00 63 °F 56.7 °F 30.1 in WNW 2 mph 4 mph 80% 0 in 0 W/m2
21:05 62.8 °F 56.5 °F 30.1 in WNW 2.9 mph 5 mph 80% 0 in 0 W/m2
21:11 62.8 °F 56.5 °F 30.1 in WNW 2 mph 4 mph 80% 0 in 0 W/m2
21:16 62.8 °F 56.5 °F 30.1 in WNW 2 mph 6 mph 80% 0 in 0 W/m2
21:21 62.6 °F 56.7 °F 30.1 in WNW 2 mph 5 mph 81% 0 in 0 W/m2
21:26 62.4 °F 56.5 °F 30.1 in SW 2.9 mph 3 mph 81% 0 in 0 W/m2
21:31 62.2 °F 56.3 °F 30.1 in West 2.9 mph 3 mph 81% 0 in 0 W/m2
21:36 62.1 °F 56.5 °F 30.1 in WNW 2 mph 2 mph 82% 0 in 0 W/m2
21:41 62.1 °F 56.5 °F 30.1 in West 2 mph 4 mph 82% 0 in 0 W/m2
21:46 61.7 °F 56.5 °F 30.1 in West 0.9 mph 3 mph 83% 0 in 0 W/m2
21:51 61.5 °F 56.3 °F 30.1 in Calm   1 mph 83% 0 in 0 W/m2
21:56 61.3 °F 56.5 °F 30.1 in Calm   1 mph 84% 0 in 0 W/m2
22:01 61.2 °F 56.3 °F 30.1 in West 2 mph 2 mph 84% 0 in 0 W/m2
22:06 61 °F 56.5 °F 30.1 in Calm   2 mph 85% 0 in 0 W/m2
22:11 60.8 °F 56.3 °F 30.1 in Calm   1 mph 85% 0 in 0 W/m2
22:16 60.6 °F 56.1 °F 30.1 in Calm     85% 0 in 0 W/m2
22:21 60.4 °F 56.3 °F 30.1 in Calm   2 mph 86% 0 in 0 W/m2
22:26 60.3 °F 56.1 °F 30.1 in Calm   1 mph 86% 0 in 0 W/m2
22:31 60.1 °F 56.1 °F 30.1 in WSW 2.9 mph 3 mph 87% 0 in 0 W/m2
22:36 59.9 °F 55.9 °F 30.1 in WSW 4 mph 5 mph 87% 0 in 0 W/m2
22:41 60.1 °F 56.5 °F 30.1 in WSW 2.9 mph 3 mph 88% 0 in 0 W/m2
22:46 60.1 °F 56.1 °F 30.1 in West 2 mph 3 mph 87% 0 in 0 W/m2
22:51 60.1 °F 56.1 °F 30.1 in West 2 mph 3 mph 87% 0 in 0 W/m2
22:56 60.1 °F 56.1 °F 30.1 in Calm   3 mph 87% 0 in 0 W/m2
23:01 60.1 °F 56.1 °F 30.1 in Calm   1 mph 87% 0 in 0 W/m2
23:06 60.1 °F 56.1 °F 30.1 in West 2 mph 2 mph 87% 0 in 0 W/m2
23:11 59.9 °F 55.9 °F 30.1 in WSW 2 mph 6 mph 87% 0 in 0 W/m2
23:16 59.9 °F 56.3 °F 30.1 in WSW 0.9 mph 6 mph 88% 0 in 0 W/m2
23:21 60.1 °F 56.5 °F 30.1 in West 2 mph 3 mph 88% 0 in 0 W/m2
23:26 60.1 °F 56.5 °F 30.1 in WSW 2 mph 6 mph 88% 0 in 0 W/m2
23:31 60.1 °F 56.5 °F 30.1 in West 2 mph 4 mph 88% 0 in 0 W/m2
23:36 60.3 °F 56.7 °F 30.1 in West 4 mph 4 mph 88% 0 in 0 W/m2
23:41 60.3 °F 56.7 °F 30.1 in West 2 mph 3 mph 88% 0 in 0 W/m2
23:46 60.1 °F 56.5 °F 30.1 in WSW 2 mph 3 mph 88% 0 in 0 W/m2
23:51 60.1 °F 56.5 °F 30.1 in West 0.9 mph 2 mph 88% 0 in 0 W/m2
23:56 60.1 °F 56.5 °F 30.1 in West 0.9 mph 2 mph 88% 0 in 0 W/m2
Juneau County Weather
Compliments of Weather Underground - 4 mb